CheckWX is a tool to help pilots better visualize weather data.  It is not intended as a substitute for an official pre-flight weather briefing.

18:51:03 UTC

OJAI METAR
Queen Alia International Airport
Amman, Jordan
Current

51 mins ago

OJAI 281800Z 27010KT 5000 HZ NSC 09/05 Q1018 NOSIG
Observed
Jan-28 @ 18:00 UTC
Wind
  • 270° at 10 KTS
Visibility
5,000 meters
Flight Rules
MVFR
Conditions
Haze
Cloud Levels
  • Clear skies
Temperature
C / 48°F
Dewpoint
C / 41°F
Humidity
76%
Altimeter
30.06" Hg
Pressure
1017.92 hPa
Previous

2 hours ago

OJAI 281700Z 28009KT 5000 HZ NSC 09/06 Q1018 NOSIG
Observed
Jan-28 @ 17:00 UTC
Wind
  • 280° at 9 KTS
Visibility
5,000 meters
Flight Rules
MVFR
Conditions
Haze
Cloud Levels
  • Clear skies
Temperature
C / 48°F
Dewpoint
C / 43°F
Humidity
82%
Altimeter
30.06" Hg
Pressure
1017.92 hPa
Previous

3 hours ago

OJAI 281600Z 29006KT 5000 HZ SCT030 SCT100 09/05 Q1017 NOSIG
Observed
Jan-28 @ 16:00 UTC
Wind
  • 290° at 6 KTS
Visibility
5,000 meters
Flight Rules
MVFR
Conditions
Haze
Cloud Levels
  • Scattered at 3,000' AGL
  • Scattered at 10,000' AGL
Temperature
C / 48°F
Dewpoint
C / 41°F
Humidity
76%
Altimeter
30.03" Hg
Pressure
1016.92 hPa